OFS weather

San Carlos Airport
Tacotalpa, Tabasco, Mexico

Public forecast

Using degrees Celsius for public forecast. Weather courtesy of forecast.io.

Closest aviation weather report (METAR) to San Carlos Airport

Report is more than 2 hours old.

Closest report is Carlos Rovirosa Pérez International Airport, 24.8 nm (45.9 km) N. Retrieved 2020/02/20 02:51 UTC (5 hours ago):

MMVA 200251Z 00000KT 7SM SKC 25/24 A3001 RMK SLP160 52024 940

Closest aviation forecast (TAF) to San Carlos Airport

Closest forecast is Carlos Rovirosa Pérez International Airport, 24.8 nm (45.9 km) N. Retrieved 2020/02/20 06:22 UTC (1 hour ago):

TAF MMVA 200515Z 2006/2106 00000KT 6SM HZ SKC FM200900 13005KT 3SM BR SCT010 TEMPO 2011/2015 1/2SM FG VV002 FM201800 10008KT 5SM HZ BKN015 BECMG 2103/2105 02008KT